Hlavní strana
METAR-TAF:

METAR-TAF

Letiště :

Whiting_Field_Naval_Air_Station_South_Airport

Milton, Florida, Spojené státy americké

zeměpisná šířka: 30-41-50N, zeměpisná délka: 087-01-12W, výška: 54 m

Aktuální stav počasí

Zpráva byla vytvořena před 1 hodinou a 8 minutami, v 09:56 UTC
Východoseverovýchodní vítr 4 kt
Teplota 20°C
Vlhkost vzduchu 100%
Tlak 1020 hPa
Viditelnost: 16.1 km
Jasno

METAR: KNDZ 240956Z AUTO 07004KT 10SM CLR 20/20 A3012 RMK AO2 SLP185 T02000200 $

Čas: 06:04 (11:04 UTC)


TAF: chybějící

Stav a předpovědi počasí z více než 4 000 letišť (zprávy METAR a TAF).

Červené a žluté tečky na mapě představují dostupné meteorologické stanice.

Když kurzor umístíte na tečku, zobrazí se název stanice.

Pak kliknutím zobrazíte stav a předpověď počasí.

Chcete-li změnit mapu, kliknutím na zelené tlačítko se znaménkem +mapu přiblížíte, kliknutím na zelené tlačítko se znaménkem – mapu oddálíte a kliknutím na zelené šipky přejdete na sousední mapy.


METAR-TAF: